sensor_id;sensor_type;location;lat;lon;timestamp;pressure;altitude;pressure_sealevel;temperature;humidity
12358;BME280;6243;51.244;6.774;2023-03-30T00:01:41;152676.94;;;20.64;58.47
12358;BME280;6243;51.244;6.774;2023-03-30T00:04:07;152947.38;;;21.70;56.62
12358;BME280;6243;51.244;6.774;2023-03-30T00:06:32;152925.59;;;21.61;56.55
12358;BME280;6243;51.244;6.774;2023-03-30T00:08:58;152955.09;;;21.73;56.07
12358;BME280;6243;51.244;6.774;2023-03-30T00:11:25;152851.25;;;21.32;56.93
12358;BME280;6243;51.244;6.774;2023-03-30T00:13:51;152841.03;;;21.28;56.41
12358;BME280;6243;51.244;6.774;2023-03-30T00:16:18;152789.78;;;21.08;57.70
12358;BME280;6243;51.244;6.774;2023-03-30T00:18:44;152903.81;;;21.53;56.41
12358;BME280;6243;51.244;6.774;2023-03-30T00:21:10;153005.19;;;21.93;55.30
12358;BME280;6243;51.244;6.774;2023-03-30T00:23:36;152924.31;;;21.61;55.84
12358;BME280;6243;51.244;6.774;2023-03-30T00:26:02;152697.47;;;20.72;57.32
12358;BME280;6243;51.244;6.774;2023-03-30T00:28:28;152651.31;;;20.53;58.35
12358;BME280;6243;51.244;6.774;2023-03-30T00:30:53;152798.72;;;21.11;56.99
12358;BME280;6243;51.244;6.774;2023-03-30T00:33:20;152880.75;;;21.44;56.01
12358;BME280;6243;51.244;6.774;2023-03-30T00:35:50;152709.00;;;20.76;57.52
12358;BME280;6243;51.244;6.774;2023-03-30T00:38:16;152820.50;;;21.20;56.50
12358;BME280;6243;51.244;6.774;2023-03-30T00:40:50;152553.94;;;20.15;58.59
12358;BME280;6243;51.244;6.774;2023-03-30T00:43:15;152687.19;;;20.68;57.53
12358;BME280;6243;51.244;6.774;2023-03-30T00:45:41;152815.38;;;21.18;56.35
12358;BME280;6243;51.244;6.774;2023-03-30T00:48:08;152810.25;;;21.16;56.22
12358;BME280;6243;51.244;6.774;2023-03-30T00:50:40;152835.91;;;21.26;56.04
12358;BME280;6243;51.244;6.774;2023-03-30T00:53:11;152858.97;;;21.35;55.57
12358;BME280;6243;51.244;6.774;2023-03-30T00:55:39;152915.38;;;21.57;54.94
12358;BME280;6243;51.244;6.774;2023-03-30T00:58:06;152719.25;;;20.80;56.11
12358;BME280;6243;51.244;6.774;2023-03-30T01:00:33;152738.44;;;20.88;56.38
12358;BME280;6243;51.244;6.774;2023-03-30T01:03:01;152715.38;;;20.79;56.56
12358;BME280;6243;51.244;6.774;2023-03-30T01:05:28;152712.81;;;20.78;56.43
12358;BME280;6243;51.244;6.774;2023-03-30T01:07:57;152870.50;;;21.40;55.12
12358;BME280;6243;51.244;6.774;2023-03-30T01:10:23;152812.84;;;21.17;55.32
12358;BME280;6243;51.244;6.774;2023-03-30T01:12:49;152858.97;;;21.35;54.52
12358;BME280;6243;51.244;6.774;2023-03-30T01:15:15;152803.84;;;21.13;55.44
12358;BME280;6243;51.244;6.774;2023-03-30T01:17:53;152779.47;;;21.04;55.73
12358;BME280;6243;51.244;6.774;2023-03-30T01:26:46;152778.19;;;21.03;55.07
12358;BME280;6243;51.244;6.774;2023-03-30T01:29:21;152757.66;;;20.95;55.14
12358;BME280;6243;51.244;6.774;2023-03-30T01:32:19;152807.72;;;21.15;54.78
12358;BME280;6243;51.244;6.774;2023-03-30T01:35:16;152920.47;;;21.59;53.50
12358;BME280;6243;51.244;6.774;2023-03-30T01:38:15;152659.00;;;20.57;55.03
12358;BME280;6243;51.244;6.774;2023-03-30T01:40:54;152889.69;;;21.47;53.81
12358;BME280;6243;51.244;6.774;2023-03-30T01:43:27;152858.97;;;21.35;53.76
12358;BME280;6243;51.244;6.774;2023-03-30T01:45:58;152928.19;;;21.62;53.36
12358;BME280;6243;51.244;6.774;2023-03-30T01:48:29;152902.53;;;21.52;53.21
12358;BME280;6243;51.244;6.774;2023-03-30T01:51:03;152765.38;;;20.98;53.72
12358;BME280;6243;51.244;6.774;2023-03-30T01:53:33;152939.72;;;21.67;52.69
12358;BME280;6243;51.244;6.774;2023-03-30T01:56:09;152938.44;;;21.66;52.48
12358;BME280;6243;51.244;6.774;2023-03-30T01:58:40;152783.34;;;21.05;53.77
12358;BME280;6243;51.244;6.774;2023-03-30T02:01:09;152825.63;;;21.22;52.97
12358;BME280;6243;51.244;6.774;2023-03-30T02:03:37;152817.97;;;21.19;53.58
12358;BME280;6243;51.244;6.774;2023-03-30T02:06:09;152865.38;;;21.38;52.74
12358;BME280;6243;51.244;6.774;2023-03-30T02:08:38;152937.16;;;21.66;52.25
12358;BME280;6243;51.244;6.774;2023-03-30T02:11:06;153007.72;;;21.94;51.97
12358;BME280;6243;51.244;6.774;2023-03-30T02:13:33;153000.00;;;21.90;51.52
12358;BME280;6243;51.244;6.774;2023-03-30T02:16:02;152855.09;;;21.34;52.56
12358;BME280;6243;51.244;6.774;2023-03-30T02:18:30;152925.59;;;21.61;51.90
12358;BME280;6243;51.244;6.774;2023-03-30T02:20:55;152946.16;;;21.69;51.86
12358;BME280;6243;51.244;6.774;2023-03-30T02:23:22;152846.16;;;21.30;52.19
12358;BME280;6243;51.244;6.774;2023-03-30T02:25:50;152974.34;;;21.80;51.73
12358;BME280;6243;51.244;6.774;2023-03-30T02:28:17;152800.00;;;21.12;51.91
12358;BME280;6243;51.244;6.774;2023-03-30T02:30:43;152993.66;;;21.88;51.20
12358;BME280;6243;51.244;6.774;2023-03-30T02:33:16;152865.38;;;21.38;51.40
12358;BME280;6243;51.244;6.774;2023-03-30T02:36:06;152919.19;;;21.59;51.47
12358;BME280;6243;51.244;6.774;2023-03-30T02:38:48;152937.16;;;21.66;51.25
12358;BME280;6243;51.244;6.774;2023-03-30T02:41:27;152962.81;;;21.76;51.02
12358;BME280;6243;51.244;6.774;2023-03-30T02:44:04;152916.66;;;21.58;51.35
12358;BME280;6243;51.244;6.774;2023-03-30T02:46:53;152861.50;;;21.36;51.99
12358;BME280;6243;51.244;6.774;2023-03-30T02:49:26;152839.72;;;21.28;52.10
12358;BME280;6243;51.244;6.774;2023-03-30T02:52:07;152975.63;;;21.81;51.04
12358;BME280;6243;51.244;6.774;2023-03-30T02:54:44;153030.81;;;22.03;51.12
12358;BME280;6243;51.244;6.774;2023-03-30T02:57:16;153056.47;;;22.13;50.59
12358;BME280;6243;51.244;6.774;2023-03-30T02:59:50;153064.13;;;22.16;50.16
12358;BME280;6243;51.244;6.774;2023-03-30T03:02:20;153071.84;;;22.19;50.76
12358;BME280;6243;51.244;6.774;2023-03-30T03:04:50;153055.19;;;22.12;50.93
12358;BME280;6243;51.244;6.774;2023-03-30T03:07:17;152828.19;;;21.23;52.25
12358;BME280;6243;51.244;6.774;2023-03-30T03:09:43;153050.06;;;22.10;50.97
12358;BME280;6243;51.244;6.774;2023-03-30T03:12:09;153123.13;;;22.39;50.33
12358;BME280;6243;51.244;6.774;2023-03-30T03:14:35;153204.00;;;22.71;49.92
12358;BME280;6243;51.244;6.774;2023-03-30T03:17:02;153168.06;;;22.56;50.39
12358;BME280;6243;51.244;6.774;2023-03-30T03:19:27;153169.31;;;22.57;50.26
12358;BME280;6243;51.244;6.774;2023-03-30T03:21:53;153092.38;;;22.27;50.70
12358;BME280;6243;51.244;6.774;2023-03-30T03:24:18;153002.59;;;21.92;51.11
12358;BME280;6243;51.244;6.774;2023-03-30T03:26:44;153170.63;;;22.57;50.38
12358;BME280;6243;51.244;6.774;2023-03-30T03:29:09;153171.91;;;22.58;50.34
12358;BME280;6243;51.244;6.774;2023-03-30T03:31:35;153168.06;;;22.56;50.35
12358;BME280;6243;51.244;6.774;2023-03-30T03:34:02;153150.13;;;22.49;50.40
12358;BME280;6243;51.244;6.774;2023-03-30T03:36:28;153164.19;;;22.55;50.16
12358;BME280;6243;51.244;6.774;2023-03-30T03:38:53;152993.66;;;21.88;50.88
12358;BME280;6243;51.244;6.774;2023-03-30T03:41:19;153147.53;;;22.48;50.30
12358;BME280;6243;51.244;6.774;2023-03-30T03:43:44;153094.94;;;22.28;50.86
12358;BME280;6243;51.244;6.774;2023-03-30T03:46:10;153260.50;;;22.93;49.64
12358;BME280;6243;51.244;6.774;2023-03-30T03:48:37;153150.13;;;22.49;50.02
12358;BME280;6243;51.244;6.774;2023-03-30T03:51:05;153211.72;;;22.74;50.13
12358;BME280;6243;51.244;6.774;2023-03-30T03:53:31;153079.56;;;22.22;50.88
12358;BME280;6243;51.244;6.774;2023-03-30T03:55:56;153120.59;;;22.38;50.78
12358;BME280;6243;51.244;6.774;2023-03-30T03:58:23;153170.63;;;22.57;50.31
12358;BME280;6243;51.244;6.774;2023-03-30T04:00:49;153128.25;;;22.41;50.39
12358;BME280;6243;51.244;6.774;2023-03-30T04:03:14;153123.13;;;22.39;50.63
12358;BME280;6243;51.244;6.774;2023-03-30T04:05:40;153230.97;;;22.81;49.88
12358;BME280;6243;51.244;6.774;2023-03-30T04:08:08;153274.59;;;22.98;49.42
12358;BME280;6243;51.244;6.774;2023-03-30T04:10:33;153201.47;;;22.70;50.00
12358;BME280;6243;51.244;6.774;2023-03-30T04:12:59;153241.22;;;22.85;49.74
12358;BME280;6243;51.244;6.774;2023-03-30T04:15:24;153050.06;;;22.10;51.11
12358;BME280;6243;51.244;6.774;2023-03-30T04:17:50;153243.81;;;22.86;49.83
12358;BME280;6243;51.244;6.774;2023-03-30T04:20:16;153300.28;;;23.08;49.61
12358;BME280;6243;51.244;6.774;2023-03-30T04:22:42;152915.38;;;21.57;51.48
12358;BME280;6243;51.244;6.774;2023-03-30T04:25:09;152978.19;;;21.82;51.81
12358;BME280;6243;51.244;6.774;2023-03-30T04:27:35;153189.91;;;22.65;50.38
12358;BME280;6243;51.244;6.774;2023-03-30T04:30:00;153100.06;;;22.30;50.66
12358;BME280;6243;51.244;6.774;2023-03-30T04:32:26;153146.22;;;22.48;50.79
12358;BME280;6243;51.244;6.774;2023-03-30T04:34:51;152893.59;;;21.49;52.19
12358;BME280;6243;51.244;6.774;2023-03-30T04:37:17;152929.50;;;21.63;52.45
12358;BME280;6243;51.244;6.774;2023-03-30T04:39:43;153035.94;;;22.05;51.38
12358;BME280;6243;51.244;6.774;2023-03-30T04:42:09;153007.72;;;21.94;51.35
12358;BME280;6243;51.244;6.774;2023-03-30T04:44:35;153109.06;;;22.33;51.27
12358;BME280;6243;51.244;6.774;2023-03-30T04:47:01;153105.19;;;22.32;50.93
12358;BME280;6243;51.244;6.774;2023-03-30T04:49:26;153009.00;;;21.94;51.52
12358;BME280;6243;51.244;6.774;2023-03-30T04:51:52;153205.31;;;22.71;50.34
12358;BME280;6243;51.244;6.774;2023-03-30T04:54:17;153188.63;;;22.65;50.26
12358;BME280;6243;51.244;6.774;2023-03-30T04:56:43;153179.66;;;22.61;50.74
12358;BME280;6243;51.244;6.774;2023-03-30T04:59:10;153263.03;;;22.94;49.92
12358;BME280;6243;51.244;6.774;2023-03-30T05:01:35;153293.84;;;23.06;50.07
12358;BME280;6243;51.244;6.774;2023-03-30T05:04:01;153351.59;;;23.28;49.38
12358;BME280;6243;51.244;6.774;2023-03-30T05:06:26;153359.31;;;23.32;49.52
12358;BME280;6243;51.244;6.774;2023-03-30T05:08:52;153385.00;;;23.42;49.40
12358;BME280;6243;51.244;6.774;2023-03-30T05:11:17;153310.53;;;23.12;49.71
12358;BME280;6243;51.244;6.774;2023-03-30T05:13:43;153310.53;;;23.12;50.18
12358;BME280;6243;51.244;6.774;2023-03-30T05:16:10;153292.56;;;23.05;50.22
12358;BME280;6243;51.244;6.774;2023-03-30T05:18:35;153336.22;;;23.22;49.96
12358;BME280;6243;51.244;6.774;2023-03-30T05:21:01;153311.81;;;23.13;49.71
12358;BME280;6243;51.244;6.774;2023-03-30T05:23:26;153347.78;;;23.27;49.63
12358;BME280;6243;51.244;6.774;2023-03-30T05:25:52;153343.88;;;23.25;49.59
12358;BME280;6243;51.244;6.774;2023-03-30T05:28:17;153400.44;;;23.48;49.17
12358;BME280;6243;51.244;6.774;2023-03-30T05:30:43;153423.56;;;23.57;49.29
12358;BME280;6243;51.244;6.774;2023-03-30T05:33:10;153435.09;;;23.61;49.20
12358;BME280;6243;51.244;6.774;2023-03-30T05:35:35;153436.34;;;23.62;49.32
12358;BME280;6243;51.244;6.774;2023-03-30T05:38:01;153417.13;;;23.54;49.36
12358;BME280;6243;51.244;6.774;2023-03-30T05:40:26;153341.34;;;23.24;49.45
12358;BME280;6243;51.244;6.774;2023-03-30T05:42:52;153376.06;;;23.38;49.78
12358;BME280;6243;51.244;6.774;2023-03-30T05:45:17;153377.34;;;23.39;49.61
12358;BME280;6243;51.244;6.774;2023-03-30T05:47:43;153349.00;;;23.27;49.76
12358;BME280;6243;51.244;6.774;2023-03-30T05:50:10;153369.63;;;23.36;49.53
12358;BME280;6243;51.244;6.774;2023-03-30T05:52:35;153207.88;;;22.72;50.49
12358;BME280;6243;51.244;6.774;2023-03-30T05:55:01;153129.56;;;22.41;51.73
12358;BME280;6243;51.244;6.774;2023-03-30T05:57:27;153028.25;;;22.02;52.15
12358;BME280;6243;51.244;6.774;2023-03-30T05:59:52;153106.47;;;22.32;51.89
12358;BME280;6243;51.244;6.774;2023-03-30T06:02:17;153106.47;;;22.32;51.95
12358;BME280;6243;51.244;6.774;2023-03-30T06:04:43;153006.44;;;21.93;52.47
12358;BME280;6243;51.244;6.774;2023-03-30T06:07:10;153135.97;;;22.44;51.76
12358;BME280;6243;51.244;6.774;2023-03-30T06:09:36;153046.16;;;22.09;52.44
12358;BME280;6243;51.244;6.774;2023-03-30T06:12:02;153056.47;;;22.13;52.20
12358;BME280;6243;51.244;6.774;2023-03-30T06:14:27;153223.25;;;22.78;50.87
12358;BME280;6243;51.244;6.774;2023-03-30T06:16:53;153248.94;;;22.88;50.65
12358;BME280;6243;51.244;6.774;2023-03-30T06:19:18;153236.09;;;22.83;50.70
12358;BME280;6243;51.244;6.774;2023-03-30T06:21:44;153264.34;;;22.94;50.64
12358;BME280;6243;51.244;6.774;2023-03-30T06:24:11;153251.50;;;22.89;50.64
12358;BME280;6243;51.244;6.774;2023-03-30T06:26:37;153075.69;;;22.20;51.93
12358;BME280;6243;51.244;6.774;2023-03-30T06:29:02;153187.34;;;22.64;51.14
12358;BME280;6243;51.244;6.774;2023-03-30T06:31:28;153152.66;;;22.50;51.26
12358;BME280;6243;51.244;6.774;2023-03-30T06:33:53;153041.06;;;22.07;52.83
12358;BME280;6243;51.244;6.774;2023-03-30T06:36:18;153065.41;;;22.16;52.78
12358;BME280;6243;51.244;6.774;2023-03-30T06:38:44;153094.94;;;22.28;52.22
12358;BME280;6243;51.244;6.774;2023-03-30T06:41:11;153213.00;;;22.74;51.35
12358;BME280;6243;51.244;6.774;2023-03-30T06:43:37;153251.50;;;22.89;51.05
12358;BME280;6243;51.244;6.774;2023-03-30T06:46:04;153247.66;;;22.88;50.96
12358;BME280;6243;51.244;6.774;2023-03-30T06:48:29;153205.31;;;22.71;51.16
12358;BME280;6243;51.244;6.774;2023-03-30T06:50:55;153277.19;;;22.99;50.22
12358;BME280;6243;51.244;6.774;2023-03-30T06:53:21;153300.28;;;23.08;50.38
12358;BME280;6243;51.244;6.774;2023-03-30T06:55:50;153184.78;;;22.63;50.68
12358;BME280;6243;51.244;6.774;2023-03-30T06:58:17;153395.28;;;23.46;49.74
12358;BME280;6243;51.244;6.774;2023-03-30T07:00:43;153350.31;;;23.28;49.86
12358;BME280;6243;51.244;6.774;2023-03-30T07:03:08;153383.72;;;23.41;49.34
12358;BME280;6243;51.244;6.774;2023-03-30T07:05:34;153248.94;;;22.88;50.20
12358;BME280;6243;51.244;6.774;2023-03-30T07:10:34;153336.22;;;23.22;49.98
12358;BME280;6243;51.244;6.774;2023-03-30T07:13:00;153265.63;;;22.95;50.49
12358;BME280;6243;51.244;6.774;2023-03-30T07:15:27;153318.25;;;23.15;50.45
12358;BME280;6243;51.244;6.774;2023-03-30T07:17:53;153373.47;;;23.37;49.96
12358;BME280;6243;51.244;6.774;2023-03-30T07:20:18;153230.97;;;22.81;50.65
12358;BME280;6243;51.244;6.774;2023-03-30T07:22:44;153141.09;;;22.46;51.59
12358;BME280;6243;51.244;6.774;2023-03-30T07:25:09;153264.34;;;22.94;50.28
12358;BME280;6243;51.244;6.774;2023-03-30T07:27:35;153278.47;;;23.00;50.97
12358;BME280;6243;51.244;6.774;2023-03-30T07:30:04;153192.47;;;22.66;51.37
12358;BME280;6243;51.244;6.774;2023-03-30T07:32:31;153254.06;;;22.90;50.68
12358;BME280;6243;51.244;6.774;2023-03-30T07:34:57;153242.53;;;22.86;51.06
12358;BME280;6243;51.244;6.774;2023-03-30T07:37:23;153265.63;;;22.95;51.13
12358;BME280;6243;51.244;6.774;2023-03-30T07:39:49;153110.31;;;22.34;52.22
12358;BME280;6243;51.244;6.774;2023-03-30T07:42:15;153215.56;;;22.75;51.57
12358;BME280;6243;51.244;6.774;2023-03-30T07:44:41;153305.41;;;23.10;50.61
12358;BME280;6243;51.244;6.774;2023-03-30T07:47:06;153306.69;;;23.11;50.34
12358;BME280;6243;51.244;6.774;2023-03-30T07:49:33;153334.91;;;23.22;50.25
12358;BME280;6243;51.244;6.774;2023-03-30T07:51:59;153391.44;;;23.44;50.17
12358;BME280;6243;51.244;6.774;2023-03-30T07:54:24;153305.41;;;23.10;50.66
12358;BME280;6243;51.244;6.774;2023-03-30T07:56:50;153343.88;;;23.25;50.05
12358;BME280;6243;51.244;6.774;2023-03-30T07:59:16;153260.50;;;22.93;50.49
12358;BME280;6243;51.244;6.774;2023-03-30T08:01:41;153260.50;;;22.93;50.59
12358;BME280;6243;51.244;6.774;2023-03-30T08:04:07;153300.28;;;23.08;50.39
12358;BME280;6243;51.244;6.774;2023-03-30T08:06:34;153248.94;;;22.88;51.19
12358;BME280;6243;51.244;6.774;2023-03-30T08:08:59;153315.66;;;23.14;51.17
12358;BME280;6243;51.244;6.774;2023-03-30T08:11:25;153275.88;;;22.99;50.92
12358;BME280;6243;51.244;6.774;2023-03-30T08:13:50;153247.66;;;22.88;51.71
12358;BME280;6243;51.244;6.774;2023-03-30T08:16:16;153297.69;;;23.07;51.23
12358;BME280;6243;51.244;6.774;2023-03-30T08:18:42;153264.34;;;22.94;51.79
12358;BME280;6243;51.244;6.774;2023-03-30T08:21:07;153284.84;;;23.02;52.27
12358;BME280;6243;51.244;6.774;2023-03-30T08:23:34;153238.66;;;22.84;52.56
12358;BME280;6243;51.244;6.774;2023-03-30T08:26:00;153066.72;;;22.17;53.51
12358;BME280;6243;51.244;6.774;2023-03-30T08:28:26;153297.69;;;23.07;52.58
12358;BME280;6243;51.244;6.774;2023-03-30T08:30:52;153273.28;;;22.98;52.44
12358;BME280;6243;51.244;6.774;2023-03-30T08:33:18;153219.44;;;22.77;52.92
12358;BME280;6243;51.244;6.774;2023-03-30T08:35:43;153220.69;;;22.77;53.06
12358;BME280;6243;51.244;6.774;2023-03-30T08:38:09;153318.25;;;23.15;51.73
12358;BME280;6243;51.244;6.774;2023-03-30T08:40:40;153392.72;;;23.45;51.66
12358;BME280;6243;51.244;6.774;2023-03-30T08:43:13;153286.13;;;23.03;52.32
12358;BME280;6243;51.244;6.774;2023-03-30T08:45:44;153436.34;;;23.62;51.41
12358;BME280;6243;51.244;6.774;2023-03-30T08:48:15;153518.53;;;23.94;51.08
12358;BME280;6243;51.244;6.774;2023-03-30T08:50:44;153575.13;;;24.16;50.59
12358;BME280;6243;51.244;6.774;2023-03-30T08:53:11;153593.06;;;24.23;50.22
12358;BME280;6243;51.244;6.774;2023-03-30T08:55:42;153654.75;;;24.47;49.38
12358;BME280;6243;51.244;6.774;2023-03-30T08:58:13;153697.16;;;24.64;49.50
12358;BME280;6243;51.244;6.774;2023-03-30T09:00:43;153729.31;;;24.77;48.93
12358;BME280;6243;51.244;6.774;2023-03-30T09:03:16;153638.06;;;24.41;48.21
12358;BME280;6243;51.244;6.774;2023-03-30T09:05:47;153614.94;;;24.32;48.24
12358;BME280;6243;51.244;6.774;2023-03-30T09:08:17;153649.63;;;24.45;48.17
12358;BME280;6243;51.244;6.774;2023-03-30T09:10:47;153617.47;;;24.33;48.66
12358;BME280;6243;51.244;6.774;2023-03-30T09:13:16;153672.75;;;24.54;48.67
12358;BME280;6243;51.244;6.774;2023-03-30T09:15:45;153706.13;;;24.67;48.58
12358;BME280;6243;51.244;6.774;2023-03-30T09:18:16;153518.53;;;23.94;50.31
12358;BME280;6243;51.244;6.774;2023-03-30T09:20:45;153292.56;;;23.05;50.25
12358;BME280;6243;51.244;6.774;2023-03-30T09:23:13;153279.72;;;23.00;52.04
12358;BME280;6243;51.244;6.774;2023-03-30T09:25:43;153431.22;;;23.60;51.39
12358;BME280;6243;51.244;6.774;2023-03-30T09:28:16;153350.31;;;23.28;52.13
12358;BME280;6243;51.244;6.774;2023-03-30T09:30:45;153305.41;;;23.10;51.39
12358;BME280;6243;51.244;6.774;2023-03-30T09:33:19;153363.16;;;23.33;51.59
12358;BME280;6243;51.244;6.774;2023-03-30T09:35:58;153510.88;;;23.91;50.42
12358;BME280;6243;51.244;6.774;2023-03-30T09:38:29;153374.75;;;23.38;50.69
12358;BME280;6243;51.244;6.774;2023-03-30T09:41:04;153236.09;;;22.83;51.28
12358;BME280;6243;51.244;6.774;2023-03-30T09:43:33;153378.59;;;23.39;50.51
12358;BME280;6243;51.244;6.774;2023-03-30T09:46:04;153417.13;;;23.54;50.56
12358;BME280;6243;51.244;6.774;2023-03-30T09:48:38;153485.16;;;23.81;49.86
12358;BME280;6243;51.244;6.774;2023-03-30T09:51:13;153532.69;;;23.99;49.56
12358;BME280;6243;51.244;6.774;2023-03-30T09:53:40;153485.16;;;23.81;49.81
12358;BME280;6243;51.244;6.774;2023-03-30T09:56:09;153383.72;;;23.41;50.15
12358;BME280;6243;51.244;6.774;2023-03-30T09:58:37;153325.91;;;23.18;50.48
12358;BME280;6243;51.244;6.774;2023-03-30T10:01:06;153307.94;;;23.11;50.65
12358;BME280;6243;51.244;6.774;2023-03-30T10:03:33;153301.56;;;23.09;51.15
12358;BME280;6243;51.244;6.774;2023-03-30T10:06:01;153533.97;;;24.00;49.44
12358;BME280;6243;51.244;6.774;2023-03-30T10:08:28;153245.06;;;22.87;52.05
12358;BME280;6243;51.244;6.774;2023-03-30T10:10:55;153256.63;;;22.91;52.34
12358;BME280;6243;51.244;6.774;2023-03-30T10:13:26;153272.03;;;22.97;52.32
12358;BME280;6243;51.244;6.774;2023-03-30T10:16:00;153215.56;;;22.75;52.85
12358;BME280;6243;51.244;6.774;2023-03-30T10:18:35;153286.13;;;23.03;52.57
12358;BME280;6243;51.244;6.774;2023-03-30T10:21:03;153213.00;;;22.74;53.15
12358;BME280;6243;51.244;6.774;2023-03-30T10:23:30;153206.59;;;22.72;53.70
12358;BME280;6243;51.244;6.774;2023-03-30T10:26:00;153165.47;;;22.55;53.91
12358;BME280;6243;51.244;6.774;2023-03-30T10:28:26;153112.88;;;22.35;54.04
12358;BME280;6243;51.244;6.774;2023-03-30T10:30:56;153227.09;;;22.80;54.02
12358;BME280;6243;51.244;6.774;2023-03-30T10:33:24;153251.50;;;22.89;54.07
12358;BME280;6243;51.244;6.774;2023-03-30T10:35:51;153297.69;;;23.07;53.98
12358;BME280;6243;51.244;6.774;2023-03-30T10:38:18;153364.44;;;23.34;53.76
12358;BME280;6243;51.244;6.774;2023-03-30T10:40:45;153295.16;;;23.06;54.23
12358;BME280;6243;51.244;6.774;2023-03-30T10:43:13;153428.69;;;23.59;53.12
12358;BME280;6243;51.244;6.774;2023-03-30T10:48:21;153563.56;;;24.12;52.29
12358;BME280;6243;51.244;6.774;2023-03-30T10:50:51;153603.38;;;24.27;51.12
12358;BME280;6243;51.244;6.774;2023-03-30T10:53:30;153456.91;;;23.70;51.55
12358;BME280;6243;51.244;6.774;2023-03-30T10:56:04;153562.28;;;24.11;50.59
12358;BME280;6243;51.244;6.774;2023-03-30T10:58:53;153788.44;;;25.00;49.39
12358;BME280;6243;51.244;6.774;2023-03-30T11:01:29;153851.38;;;25.24;49.84
12358;BME280;6243;51.244;6.774;2023-03-30T11:04:05;154016.00;;;25.89;48.58
12358;BME280;6243;51.244;6.774;2023-03-30T11:06:34;153918.31;;;25.51;48.29
12358;BME280;6243;51.244;6.774;2023-03-30T11:09:04;154068.78;;;26.10;47.23
12358;BME280;6243;51.244;6.774;2023-03-30T11:11:38;154130.50;;;26.34;46.58
12358;BME280;6243;51.244;6.774;2023-03-30T11:14:06;154073.91;;;26.12;47.18
12358;BME280;6243;51.244;6.774;2023-03-30T11:16:40;154005.72;;;25.85;47.33
12358;BME280;6243;51.244;6.774;2023-03-30T11:19:13;154163.94;;;26.47;46.80
12358;BME280;6243;51.244;6.774;2023-03-30T11:21:45;154210.28;;;26.65;46.16
12358;BME280;6243;51.244;6.774;2023-03-30T11:24:18;153938.84;;;25.59;46.66
12358;BME280;6243;51.244;6.774;2023-03-30T11:26:49;154094.47;;;26.20;46.55
12358;BME280;6243;51.244;6.774;2023-03-30T11:29:28;154113.78;;;26.27;45.68
12358;BME280;6243;51.244;6.774;2023-03-30T11:32:00;153922.16;;;25.52;46.73
12358;BME280;6243;51.244;6.774;2023-03-30T11:34:35;154045.59;;;26.00;46.14
12358;BME280;6243;51.244;6.774;2023-03-30T11:37:11;154142.06;;;26.38;45.93
12358;BME280;6243;51.244;6.774;2023-03-30T11:39:40;154089.34;;;26.18;45.91
12358;BME280;6243;51.244;6.774;2023-03-30T11:42:15;154113.78;;;26.27;46.03
12358;BME280;6243;51.244;6.774;2023-03-30T11:44:43;153981.28;;;25.75;46.07
12358;BME280;6243;51.244;6.774;2023-03-30T11:47:20;154077.75;;;26.13;45.77
12358;BME280;6243;51.244;6.774;2023-03-30T11:50:05;154086.78;;;26.17;45.92
12358;BME280;6243;51.244;6.774;2023-03-30T11:52:39;153953.00;;;25.64;46.55
12358;BME280;6243;51.244;6.774;2023-03-30T11:55:21;153801.28;;;25.05;47.24
12358;BME280;6243;51.244;6.774;2023-03-30T11:57:58;153712.56;;;24.70;48.23
12358;BME280;6243;51.244;6.774;2023-03-30T12:00:38;153670.16;;;24.53;48.18
12358;BME280;6243;51.244;6.774;2023-03-30T12:03:13;153778.16;;;24.96;47.91
12358;BME280;6243;51.244;6.774;2023-03-30T12:05:45;153639.34;;;24.41;48.42
12358;BME280;6243;51.244;6.774;2023-03-30T12:08:22;153586.69;;;24.21;49.24
12358;BME280;6243;51.244;6.774;2023-03-30T12:10:54;153392.72;;;23.45;54.30
12358;BME280;6243;51.244;6.774;2023-03-30T12:13:24;153431.22;;;23.60;55.83
12358;BME280;6243;51.244;6.774;2023-03-30T12:15:52;153480.03;;;23.79;56.29
12358;BME280;6243;51.244;6.774;2023-03-30T12:18:27;153675.28;;;24.55;55.37
12358;BME280;6243;51.244;6.774;2023-03-30T12:21:03;153644.47;;;24.43;56.03
12358;BME280;6243;51.244;6.774;2023-03-30T12:23:36;153639.34;;;24.41;54.20
12358;BME280;6243;51.244;6.774;2023-03-30T12:26:09;153771.72;;;24.93;53.12
12358;BME280;6243;51.244;6.774;2023-03-30T12:28:46;153643.19;;;24.43;52.33
12358;BME280;6243;51.244;6.774;2023-03-30T12:31:12;153775.56;;;24.95;52.20
12358;BME280;6243;51.244;6.774;2023-03-30T12:33:44;153853.97;;;25.25;52.37
12358;BME280;6243;51.244;6.774;2023-03-30T12:36:23;153728.00;;;24.76;52.54
12358;BME280;6243;51.244;6.774;2023-03-30T12:38:51;153648.31;;;24.45;52.16
12358;BME280;6243;51.244;6.774;2023-03-30T12:41:18;153234.81;;;22.83;53.52
12358;BME280;6243;51.244;6.774;2023-03-30T12:44:04;153521.13;;;23.95;51.98
12358;BME280;6243;51.244;6.774;2023-03-30T12:46:35;153594.34;;;24.24;51.47
12358;BME280;6243;51.244;6.774;2023-03-30T12:49:12;153544.25;;;24.04;51.65
12358;BME280;6243;51.244;6.774;2023-03-30T12:51:51;153413.25;;;23.53;52.44
12358;BME280;6243;51.244;6.774;2023-03-30T12:54:40;153441.53;;;23.64;52.68
12358;BME280;6243;51.244;6.774;2023-03-30T12:57:19;153575.13;;;24.16;51.67
12358;BME280;6243;51.244;6.774;2023-03-30T13:00:29;153681.72;;;24.58;51.96
12358;BME280;6243;51.244;6.774;2023-03-30T13:03:15;153747.31;;;24.84;51.34
12358;BME280;6243;51.244;6.774;2023-03-30T13:05:49;153722.81;;;24.74;50.92
12358;BME280;6243;51.244;6.774;2023-03-30T13:08:21;153722.81;;;24.74;50.90
12358;BME280;6243;51.244;6.774;2023-03-30T13:11:05;153713.84;;;24.71;51.36
12358;BME280;6243;51.244;6.774;2023-03-30T13:13:52;153706.13;;;24.67;51.37
12358;BME280;6243;51.244;6.774;2023-03-30T13:16:45;153629.03;;;24.37;50.72
12358;BME280;6243;51.244;6.774;2023-03-30T13:19:18;153752.44;;;24.86;49.81
12358;BME280;6243;51.244;6.774;2023-03-30T13:21:48;153775.56;;;24.95;49.40
12358;BME280;6243;51.244;6.774;2023-03-30T13:24:36;153802.59;;;25.05;49.13